Flight Track Log - Related Links

Times and Time Zones

All times are in EDT time to prevent confusion due to time zone crossing. See the EJA922 flight status page for this flight to view local times or setup timezone preferences in your user account.

Time Position Orientation Groundspeed Altitude Reporting Facility
EDT Latitude Longitude Course Direction KTS MPH feet Rate Location/Type
Sat 04:33:11 PM 28.4167 -81.3333 199° South 176 203 800  Level Orlando TRACON
Sat 04:34:41 PM 28.3333 -81.3667 199° South 211 243 5,100 3,432 Climbing Orlando TRACON
Sat 04:36:53 PM 28.2033 -81.4175 199° South 231 266 13,500 3,219 Climbing Miami Center
Sat 04:37:53 PM 28.1253 -81.4425 196° South 247 284 15,400 1,650 Climbing Miami Center
Sat 04:38:53 PM 28.0300 -81.4197 168° South 317 365 16,800 1,500 Climbing Miami Center
Sat 04:39:53 PM 27.9644 -81.3139 125° Southeast 317 365 18,400 1,500 Climbing Miami Center
Sat 04:40:53 PM 27.9069 -81.2131 123° Southeast 363 418 19,800 1,550 Climbing Miami Center
Sat 04:41:53 PM 27.8378 -81.0881 122° Southeast 418 481 21,500 1,850 Climbing Miami Center
Sat 04:42:53 PM 27.7739 -80.9803 124° Southeast 424 488 23,500 1,900 Climbing Miami Center
Sat 04:43:53 PM 27.7122 -80.8772 124° Southeast 424 488 25,300 1,350 Climbing Miami Center
Sat 04:44:53 PM 27.6544 -80.7814 124° Southeast 412 474 26,200 1,050 Climbing Miami Center
Sat 04:45:53 PM 27.5886 -80.6644 122° Southeast 418 481 27,400 1,100 Climbing Miami Center
Sat 04:46:53 PM 27.5206 -80.5472 123° Southeast 437 503 28,400 1,050 Climbing Miami Center
Sat 04:47:53 PM 27.4506 -80.4281 123° Southeast 448 516 29,500 1,100 Climbing Miami Center
Sat 04:48:53 PM 27.3783 -80.3067 124° Southeast 454 522 30,600 750 Climbing Miami Center
Sat 04:49:53 PM 27.3061 -80.1853 124° Southeast 459 528 31,000 200 Climbing Miami Center
Sat 04:50:53 PM 27.2317 -80.0569 123° Southeast 477 549 31,000  Level Miami Center
Sat 04:51:53 PM 27.1550 -79.9311 124° Southeast 482 555 31,000  Level Miami Center
Sat 04:52:53 PM 27.0825 -79.8008 122° Southeast 487 560 31,000 500 Level Miami Center
Sat 04:53:53 PM 27.0078 -79.6731 123° Southeast 492 566 32,000 1,150 Climbing Miami Center
Sat 04:54:53 PM 26.9269 -79.5383 124° Southeast 484 557 33,300 1,150 Climbing Miami Center
Sat 04:55:53 PM 26.8539 -79.4133 123° Southeast 479 551 34,300 1,000 Climbing Miami Center
Sat 04:56:53 PM 26.7869 -79.3000 123° Southeast 479 551 35,300 1,100 Climbing Miami Center
Sat 04:57:53 PM 26.7117 -79.1683 123° Southeast 490 564 36,500 1,300 Climbing Miami Center
Sat 04:58:53 PM 26.6322 -79.0367 124° Southeast 496 571 37,900 1,350 Climbing Miami Center
Sat 04:59:53 PM 26.5550 -78.9028 123° Southeast 502 578 39,200 1,350 Climbing Miami Center
Sat 05:00:53 PM 26.4814 -78.7761 123° Southeast 507 583 40,600 900 Climbing Miami Center
Sat 05:01:53 PM 26.3953 -78.6356 124° Southeast 502 578 41,000 200 Climbing Miami Center
Sat 05:02:53 PM 26.3217 -78.5047 122° Southeast 497 572 41,000  Level Miami Center
Sat 05:03:53 PM 26.2481 -78.3739 122° Southeast 503 579 41,000  Level Miami Center
Sat 05:04:53 PM 26.1697 -78.2456 124° Southeast 503 579 41,000  Level Miami Center
Sat 05:05:53 PM 26.0936 -78.1222 124° Southeast 503 579 41,000  Level Miami Center
Sat 05:06:53 PM 26.0175 -77.9872 122° Southeast 503 579 41,000  Level Miami Center
Sat 05:07:53 PM 25.9431 -77.8569 122° Southeast 503 579 41,000  Level Miami Center
Sat 05:08:53 PM 25.8750 -77.7411 123° Southeast 503 579 41,000  Level Miami Center
Sat 05:09:53 PM 25.7983 -77.6136 124° Southeast 503 579 41,000  Level Miami Center
Sat 05:10:53 PM 25.7153 -77.4722 123° Southeast 497 572 41,000  Level Miami Center
Sat 05:11:53 PM 25.6386 -77.3428 123° Southeast 497 572 41,000  Level Miami Center
Sat 05:12:53 PM 25.5617 -77.2158 124° Southeast 502 578 41,000  Level Miami Center
Sat 05:13:53 PM 25.4844 -77.0844 123° Southeast 502 578 41,000  Level Miami Center
Sat 05:14:53 PM 25.4072 -76.9578 124° Southeast 502 578 41,000  Level Miami Center
Sat 05:15:53 PM 25.3278 -76.8267 124° Southeast 502 578 41,000  Level Miami Center
Sat 05:16:53 PM 25.2525 -76.7003 123° Southeast 502 578 41,000  Level Miami Center
Sat 05:17:53 PM 25.1750 -76.5694 123° Southeast 502 578 41,000  Level Miami Center
Sat 05:18:53 PM 25.0953 -76.4411 124° Southeast 502 578 41,000  Level Miami Center
Sat 05:19:53 PM 25.0175 -76.3131 124° Southeast 502 578 41,000 600 Level Miami Center
Sat 05:20:53 PM 24.9417 -76.1872 124° Southeast 502 578 42,200 1,100 Climbing Miami Center
Sat 05:21:53 PM 24.8764 -76.0869 126° Southeast 502 578 43,200 850 Climbing Miami Center
Sat 05:22:53 PM 24.7878 -75.9408 124° Southeast 497 572 43,900 600 Climbing Miami Center
Sat 05:23:53 PM 24.7117 -75.8156 124° Southeast 491 565 44,400 500 Climbing Miami Center
Sat 05:24:53 PM 24.6356 -75.6906 124° Southeast 491 565 44,900 300 Climbing Miami Center
Sat 05:25:53 PM 24.5572 -75.5678 125° Southeast 491 565 45,000 50 Climbing Miami Center
Sat 05:26:53 PM 24.4808 -75.4431 124° Southeast 491 565 45,000  Level Miami Center
Sat 05:27:53 PM 24.4044 -75.3183 124° Southeast 491 565 45,000  Level Miami Center
Sat 05:28:53 PM 24.3258 -75.1917 124° Southeast 491 565 45,000  Level Miami Center
Sat 05:29:53 PM 24.2492 -75.0675 124° Southeast 491 565 45,000  Level Miami Center
Sat 05:30:53 PM 24.1703 -74.9411 124° Southeast 491 565 45,000  Level Miami Center
Sat 05:31:53 PM 24.0892 -74.8194 126° Southeast 486 559 45,000  Level Miami Center
Sat 05:32:53 PM 24.0122 -74.6933 124° Southeast 486 559 45,000  Level Miami Center
Sat 05:33:53 PM 23.9350 -74.5694 124° Southeast 486 559 45,000  Level Miami Center
Sat 05:34:53 PM 23.8664 -74.4617 125° Southeast 486 559 45,000  Level Miami Center
Sat 05:35:53 PM 23.7828 -74.3361 126° Southeast 493 567 45,000  Level Miami Center
Sat 05:36:53 PM 23.7075 -74.2128 124° Southeast 493 567 45,000  Level Miami Center
Sat 05:37:53 PM 23.6281 -74.0897 125° Southeast 493 567 45,000  Level Miami Center
Sat 05:38:53 PM 23.5483 -73.9669 125° Southeast 493 567 45,000  Level Miami Center
Sat 05:39:53 PM 23.4708 -73.8442 125° Southeast 493 567 45,000  Level Miami Center
Sat 05:40:53 PM 23.3911 -73.7239 126° Southeast 487 560 45,000  Level Miami Center
Sat 05:41:53 PM 23.3111 -73.5992 125° Southeast 492 566 45,000  Level Miami Center
Sat 05:42:53 PM 23.2311 -73.4769 125° Southeast 492 566 45,000  Level Miami Center
Sat 05:43:53 PM 23.1553 -73.3525 124° Southeast 492 566 45,000  Level Miami Center
Sat 05:44:53 PM 23.0686 -73.2306 128° Southeast 492 566 45,000  Level Miami Center
Sat 05:45:53 PM 22.9969 -73.1131 124° Southeast 487 560 45,000  Level Miami Center
Sat 05:46:53 PM 22.9186 -72.9892 124° Southeast 487 560 45,000  Level Miami Center
Sat 05:47:53 PM 22.8381 -72.8678 126° Southeast 492 566 45,000  Level Miami Center
Sat 05:48:53 PM 22.7578 -72.7464 126° Southeast 492 566 45,000  Level Miami Center
Sat 05:49:53 PM 22.6792 -72.6228 125° Southeast 492 566 45,000  Level Miami Center
Sat 05:50:53 PM 22.6006 -72.5017 125° Southeast 492 566 45,000  Level Miami Center
Sat 05:51:53 PM 22.5197 -72.3831 126° Southeast 487 560 45,000  Level Miami Center
Sat 05:52:53 PM 22.4389 -72.2600 125° Southeast 492 566 45,000  Level Miami Center
Sat 05:53:53 PM 22.3619 -72.1394 125° Southeast 492 566 45,000  Level Miami Center
Sat 05:54:53 PM 22.2789 -72.0167 126° Southeast 492 566 45,000  Level Miami Center
Sat 05:55:53 PM 22.1997 -71.8964 125° Southeast 492 566 45,000  Level Miami Center
Sat 05:56:53 PM 22.1208 -71.7761 125° Southeast 492 566 45,000  Level Miami Center
Sat 05:57:53 PM 22.0372 -71.6542 126° Southeast 492 566 45,000  Level Miami Center
Sat 05:58:53 PM 21.9581 -71.5342 125° Southeast 492 566 45,000  Level Miami Center
Sat 05:59:53 PM 21.8789 -71.4167 126° Southeast 487 560 45,000  Level Miami Center
Sat 06:00:53 PM 21.7994 -71.2969 126° Southeast 492 566 45,000  Level Miami Center
Sat 06:01:53 PM 21.7200 -71.1775 126° Southeast 492 566 45,000  Level Miami Center
Sat 06:02:53 PM 21.6403 -71.0561 125° Southeast 492 566 45,000  Level Miami Center
Sat 06:03:53 PM 21.5494 -70.9194 126° Southeast 497 572 45,000  Level Miami Center
Sat 06:04:53 PM 21.4678 -70.8050 127° Southeast 497 572 45,000  Level Miami Center
Sat 06:05:53 PM 21.3881 -70.6861 126° Southeast 497 572 45,000  Level Miami Center
Sat 06:06:53 PM 21.3061 -70.5678 127° Southeast 487 560 45,000  Level Miami Center
Sat 06:07:53 PM 21.2261 -70.4492 126° Southeast 487 560 45,000  Level Miami Center
Sat 06:08:53 PM 21.1439 -70.3308 127° Southeast 492 566 45,000  Level Miami Center
Sat 06:09:53 PM 21.0639 -70.2125 126° Southeast 492 566 45,000  Level Miami Center
Sat 06:10:53 PM 20.9817 -70.0922 126° Southeast 492 566 45,000  Level Miami Center
Sat 06:11:53 PM 20.8992 -69.9722 126° Southeast 492 566 45,000  Level Miami Center
Sat 06:12:53 PM 20.8167 -69.8544 127° Southeast 492 566 45,000  Level Miami Center
Sat 06:13:53 PM 20.7364 -69.7347 126° Southeast 492 566 45,000  Level Miami Center
Sat 06:14:53 PM 20.6536 -69.6150 126° Southeast 497 572 45,000  Level Miami Center
Sat 06:15:53 PM 20.5711 -69.4956 126° Southeast 497 572 45,000  Level Miami Center
Sat 06:16:53 PM 20.4883 -69.3783 127° Southeast 502 578 45,000  Level Miami Center
Sat 06:17:53 PM 20.4056 -69.2592 127° Southeast 502 578 45,000  Level Miami Center
Sat 06:18:53 PM 20.3269 -69.1422 126° Southeast 502 578 45,000  Level Miami Center
Sat 06:19:53 PM 20.2500 -69.0183 123° Southeast 502 578 45,000  Level Miami Center
Sat 06:20:53 PM 20.1750 -68.8969 123° Southeast 502 578 45,000  Level Miami Center
Sat 06:21:53 PM 20.1000 -68.7714 122° Southeast 497 572 45,000  Level Miami Center
Sat 06:22:53 PM 20.0228 -68.6483 124° Southeast 497 572 45,000  Level Miami Center
Sat 06:23:53 PM 19.9517 -68.5225 121° Southeast 497 572 45,000  Level Miami Center
Sat 06:24:53 PM 19.8764 -68.4017 124° Southeast 497 572 45,000  Level Miami Center
Sat 06:25:46 PM 19.8000 -68.3000 129° Southeast 500 575 45,000  Level San Juan Center
Sat 06:26:46 PM 19.7333 -68.1667 118° Southeast 490 564 45,000  Level San Juan Center
Sat 06:27:47 PM 19.6500 -68.0500 127° Southeast 490 564 45,000 -595 Level San Juan Center
Sat 06:28:47 PM 19.5833 -67.9333 121° Southeast 490 564 43,800 -2,100 Descending San Juan Center
Sat 06:29:47 PM 19.5000 -67.8000 124° Southeast 490 564 40,800 -3,100 Descending San Juan Center
Sat 06:30:47 PM 19.4333 -67.6667 118° Southeast 500 575 37,600 -3,074 Descending San Juan Center
Sat 06:31:48 PM 19.3500 -67.5500 127° Southeast 510 587 34,600 -3,124 Descending San Juan Center
Sat 06:32:48 PM 19.2667 -67.4167 123° Southeast 520 598 31,300 -3,300 Descending San Juan Center
Sat 06:33:48 PM 19.1833 -67.3000 127° Southeast 520 598 28,000 -3,174 Descending San Juan Center
Sat 06:34:49 PM 19.1167 -67.1667 118° Southeast 500 575 24,900 -3,124 Descending San Juan Center
Sat 06:35:49 PM 19.0333 -67.0500 127° Southeast 490 564 21,700 -2,900 Descending San Juan Center
Sat 06:36:49 PM 18.9667 -66.9500 125° Southeast 450 518 19,100 -2,550 Descending San Juan Center
Sat 06:37:49 PM 18.9000 -66.8333 121° Southeast 420 483 16,600 -2,550 Descending San Juan Center
Sat 06:38:49 PM 18.8333 -66.7333 125° Southeast 410 472 14,000 -2,479 Descending San Juan Center
Sat 06:39:50 PM 18.7667 -66.6500 130° Southeast 360 414 11,600 -1,785 Descending San Juan Center
Sat 06:40:50 PM 18.7167 -66.5667 122° Southeast 310 357 10,400 -1,500 Descending San Juan Center
Sat 06:41:50 PM 18.6833 -66.5000 118° Southeast 270 311 8,600 -1,736 Descending San Juan Center
Sat 06:42:51 PM 18.6500 -66.4333 118° Southeast 270 311 6,900 -1,636 Descending San Juan Center
Sat 06:43:51 PM 18.5833 -66.3833 145° Southeast 260 299 5,300 -1,300 Descending San Juan Center
Sat 06:44:51 PM 18.5500 -66.3167 118° Southeast 250 288 4,300 -843 Descending San Juan Center
Sat 06:45:52 PM 18.5000 -66.2833 148° Southeast 200 230 3,600 -793 Descending San Juan Center
Sat 06:46:52 PM 18.4667 -66.2333 125° Southeast 180 207 2,700 -650 Descending San Juan Center
Sat 06:47:52 PM 18.4333 -66.2000 137° Southeast 170 196 2,300 -198 Descending San Juan Center
Sat 06:48:53 PM 18.4333 -66.1667 90° East 160 184 2,300 -50 Level San Juan Center
Sat 06:49:53 PM 18.4333 -66.1167 90° East 120 138 2,200 -400 Descending San Juan Center
Sat 06:50:53 PM 18.4333 -66.0833 90° East 110 127 1,500 -645 Descending San Juan Center
Sat 06:51:54 PM 18.4333 -66.0500 90° East 110 127 900 -645 Descending San Juan Center
Sat 06:52:54 PM 18.4333 -66.0167 90° East 110 127 200 -700 Descending San Juan Center

Login

Don't have an account? Register now (free) for customized features, flight alerts, and more!